createdAt,value
2018-04-13T00:02:03.633Z,37.10
2018-04-13T00:04:31.887Z,34.50
2018-04-13T00:07:04.192Z,35.40
2018-04-13T00:09:32.791Z,38.20
2018-04-13T00:12:01.120Z,35.77
2018-04-13T00:14:29.412Z,36.13
2018-04-13T00:16:57.809Z,35.00
2018-04-13T00:19:26.182Z,35.93
2018-04-13T00:21:54.526Z,36.27
2018-04-13T00:24:22.799Z,37.47
2018-04-13T00:26:51.138Z,36.10
2018-04-13T00:29:22.171Z,37.03
2018-04-13T00:31:51.229Z,36.17
2018-04-13T00:34:19.500Z,36.83
2018-04-13T00:36:47.789Z,36.57
2018-04-13T00:39:16.033Z,35.40
2018-04-13T00:41:44.377Z,37.17
2018-04-13T00:44:12.664Z,37.20
2018-04-13T00:46:40.928Z,37.70
2018-04-13T00:49:09.754Z,37.10
2018-04-13T00:51:38.090Z,34.33
2018-04-13T00:54:06.393Z,37.33
2018-04-13T00:56:34.715Z,34.90
2018-04-13T00:59:02.971Z,34.80
2018-04-13T01:01:31.251Z,34.00
2018-04-13T01:04:00.311Z,32.93
2018-04-13T01:06:28.739Z,33.70
2018-04-13T01:08:56.993Z,34.60
2018-04-13T01:11:25.270Z,32.73
2018-04-13T01:13:53.521Z,32.27
2018-04-13T01:16:21.826Z,32.17
2018-04-13T01:18:50.357Z,32.67
2018-04-13T01:21:18.630Z,31.03
2018-04-13T01:23:47.017Z,31.97
2018-04-13T01:26:15.300Z,34.10
2018-04-13T01:28:43.591Z,35.00
2018-04-13T01:31:12.067Z,34.60
2018-04-13T01:33:40.329Z,36.07
2018-04-13T01:36:08.637Z,34.90
2018-04-13T01:38:36.960Z,36.50
2018-04-13T01:41:05.363Z,37.53
2018-04-13T01:43:33.786Z,34.23
2018-04-13T01:46:02.082Z,36.73
2018-04-13T01:48:30.550Z,36.63
2018-04-13T01:50:59.002Z,37.97
2018-04-13T01:53:27.603Z,36.30
2018-04-13T01:55:55.951Z,37.77
2018-04-13T01:58:24.222Z,35.87
2018-04-13T02:00:52.516Z,36.90
2018-04-13T02:03:20.815Z,36.23
2018-04-13T02:05:49.103Z,33.83
2018-04-13T02:08:17.609Z,35.80
2018-04-13T02:10:46.213Z,36.67
2018-04-13T02:13:14.630Z,37.27
2018-04-13T02:15:42.911Z,36.20
2018-04-13T02:18:11.159Z,35.03
2018-04-13T02:20:39.458Z,35.43
2018-04-13T02:23:07.810Z,35.70
2018-04-13T02:25:36.139Z,35.33
2018-04-13T02:28:04.414Z,35.50
2018-04-13T02:30:32.691Z,34.37
2018-04-13T02:33:01.131Z,36.30
2018-04-13T02:35:29.562Z,33.53
2018-04-13T02:37:57.897Z,35.60
2018-04-13T02:40:26.247Z,32.90
2018-04-13T02:42:54.797Z,34.37
2018-04-13T02:45:23.100Z,35.23
2018-04-13T02:47:51.369Z,33.93
2018-04-13T02:50:19.661Z,32.30
2018-04-13T02:52:47.925Z,33.40
2018-04-13T02:55:16.287Z,33.60
2018-04-13T02:57:44.594Z,32.60
2018-04-13T03:00:13.059Z,34.57
2018-04-13T03:02:41.415Z,34.00
2018-04-13T03:05:09.786Z,32.37
2018-04-13T03:07:38.120Z,32.13
2018-04-13T03:10:06.439Z,33.57
2018-04-13T03:12:34.901Z,32.43
2018-04-13T03:15:04.306Z,31.57
2018-04-13T03:17:32.750Z,31.47
2018-04-13T03:20:00.983Z,31.97
2018-04-13T03:22:29.357Z,29.90
2018-04-13T03:24:57.754Z,32.43
2018-04-13T03:27:26.095Z,32.17
2018-04-13T03:29:54.359Z,32.67
2018-04-13T03:32:22.815Z,30.10
2018-04-13T03:34:51.297Z,31.57
2018-04-13T03:37:19.828Z,31.10
2018-04-13T03:39:48.083Z,32.00
2018-04-13T03:42:16.429Z,30.43
2018-04-13T03:44:44.847Z,31.20
2018-04-13T03:47:13.254Z,32.67
2018-04-13T03:49:41.472Z,29.50
2018-04-13T03:52:09.781Z,29.43
2018-04-13T03:54:38.053Z,30.40
2018-04-13T03:57:06.384Z,30.93
2018-04-13T03:59:34.930Z,28.00
2018-04-13T04:04:58.939Z,29.17
2018-04-13T04:07:27.482Z,29.30
2018-04-13T04:09:55.983Z,31.80
2018-04-13T04:12:24.682Z,30.20
2018-04-13T04:14:53.308Z,28.73
2018-04-13T04:17:21.819Z,29.63
2018-04-13T04:19:59.378Z,30.30
2018-04-13T04:22:39.256Z,28.10
2018-04-13T04:25:18.780Z,27.60
2018-04-13T04:27:47.218Z,28.23
2018-04-13T04:30:15.770Z,29.40
2018-04-13T04:32:44.417Z,30.40
2018-04-13T04:35:13.262Z,28.60
2018-04-13T04:37:41.776Z,30.20
2018-04-13T04:40:10.324Z,28.50
2018-04-13T04:42:38.912Z,30.17
2018-04-13T04:45:07.471Z,28.33
2018-04-13T04:47:36.132Z,31.50
2018-04-13T04:50:04.716Z,30.00
2018-04-13T04:52:33.301Z,29.83
2018-04-13T04:55:01.814Z,28.33
2018-04-13T04:57:30.751Z,30.80
2018-04-13T04:59:59.627Z,30.03
2018-04-13T05:02:28.431Z,30.73
2018-04-13T05:04:58.803Z,29.80
2018-04-13T05:07:28.528Z,30.90
2018-04-13T05:09:58.822Z,29.10
2018-04-13T05:12:29.196Z,29.27
2018-04-13T05:14:59.832Z,29.67
2018-04-13T05:17:29.283Z,31.10
2018-04-13T05:19:58.887Z,31.70
2018-04-13T05:22:28.699Z,30.13
2018-04-13T05:24:57.319Z,28.60
2018-04-13T05:27:31.042Z,29.50
2018-04-13T05:30:03.103Z,30.53
2018-04-13T05:32:33.323Z,29.43
2018-04-13T05:35:03.211Z,31.13
2018-04-13T05:37:32.551Z,30.77
2018-04-13T05:40:02.093Z,29.60
2018-04-13T05:42:31.202Z,29.83
2018-04-13T05:45:01.556Z,30.30
2018-04-13T05:47:30.755Z,31.97
2018-04-13T05:49:59.727Z,29.83
2018-04-13T05:52:28.212Z,29.30
2018-04-13T05:54:56.811Z,28.33
2018-04-13T05:57:25.533Z,28.47
2018-04-13T05:59:54.051Z,27.60
2018-04-13T06:02:22.808Z,28.90
2018-04-13T06:04:51.401Z,29.27
2018-04-13T06:07:20.768Z,28.43
2018-04-13T06:09:49.281Z,27.63
2018-04-13T06:12:18.359Z,26.93
2018-04-13T06:14:46.965Z,29.47
2018-04-13T06:17:15.645Z,28.37
2018-04-13T06:19:44.114Z,26.60
2018-04-13T06:22:12.823Z,26.87
2018-04-13T06:24:41.327Z,26.73
2018-04-13T06:27:10.037Z,27.87
2018-04-13T06:29:38.664Z,26.23
2018-04-13T06:32:07.148Z,26.43
2018-04-13T06:34:41.802Z,25.90
2018-04-13T06:37:10.427Z,25.27
2018-04-13T06:39:38.895Z,25.73
2018-04-13T06:42:07.808Z,24.50
2018-04-13T06:44:36.426Z,24.27
2018-04-13T06:47:05.228Z,23.73
2018-04-13T06:49:33.907Z,23.80
2018-04-13T06:52:02.660Z,23.13
2018-04-13T06:54:31.328Z,22.60
2018-04-13T06:57:00.058Z,24.37
2018-04-13T06:59:28.672Z,20.47
2018-04-13T07:01:57.523Z,24.00
2018-04-13T07:04:26.000Z,22.40
2018-04-13T07:06:55.337Z,25.13
2018-04-13T07:09:24.052Z,25.73
2018-04-13T07:11:52.577Z,23.60
2018-04-13T07:14:21.396Z,26.23
2018-04-13T07:16:50.098Z,24.53
2018-04-13T07:19:19.015Z,25.53
2018-04-13T07:21:48.015Z,26.00
2018-04-13T07:24:16.986Z,26.10
2018-04-13T07:26:51.938Z,27.20
2018-04-13T07:29:20.479Z,27.73
2018-04-13T07:31:48.941Z,27.23
2018-04-13T07:34:17.393Z,28.20
2018-04-13T07:36:45.986Z,27.23
2018-04-13T07:39:15.236Z,27.17
2018-04-13T07:41:43.925Z,28.67
2018-04-13T07:44:12.586Z,27.27
2018-04-13T07:46:41.034Z,28.10
2018-04-13T07:49:09.495Z,30.07
2018-04-13T07:51:39.025Z,30.00
2018-04-13T07:54:07.581Z,29.67
2018-04-13T07:56:36.296Z,33.30
2018-04-13T07:59:04.945Z,34.37
2018-04-13T08:01:33.645Z,32.27
2018-04-13T08:04:02.731Z,33.27
2018-04-13T08:06:31.770Z,34.20
2018-04-13T08:09:00.536Z,34.97
2018-04-13T08:11:29.017Z,33.70
2018-04-13T08:13:57.802Z,33.27
2018-04-13T08:16:26.329Z,35.40
2018-04-13T08:18:54.694Z,35.17
2018-04-13T08:21:23.200Z,35.10
2018-04-13T08:23:51.796Z,35.00
2018-04-13T08:26:20.676Z,35.47
2018-04-13T08:28:49.358Z,34.33
2018-04-13T08:31:18.977Z,34.03
2018-04-13T08:33:47.690Z,37.40
2018-04-13T08:36:16.347Z,36.77
2018-04-13T08:38:44.764Z,37.43
2018-04-13T08:41:13.483Z,35.53
2018-04-13T08:43:42.239Z,38.60
2018-04-13T08:46:10.683Z,36.10
2018-04-13T08:48:39.654Z,36.30
2018-04-13T08:51:08.235Z,37.40
2018-04-13T08:53:37.110Z,39.70
2018-04-13T08:56:05.588Z,37.00
2018-04-13T08:58:34.071Z,37.40
2018-04-13T09:01:04.030Z,37.63
2018-04-13T09:03:32.878Z,40.90
2018-04-13T09:06:01.560Z,40.67
2018-04-13T09:08:30.023Z,42.17
2018-04-13T09:10:58.536Z,39.13
2018-04-13T09:13:28.108Z,37.57
2018-04-13T09:15:56.760Z,37.57
2018-04-13T09:18:25.673Z,36.53
2018-04-13T09:20:54.339Z,36.73
2018-04-13T09:23:23.227Z,38.60
2018-04-13T09:25:52.270Z,34.20
2018-04-13T09:28:20.719Z,34.40
2018-04-13T09:30:49.448Z,32.57
2018-04-13T09:33:18.020Z,31.03
2018-04-13T09:35:46.622Z,33.80
2018-04-13T09:38:15.079Z,33.30
2018-04-13T09:40:44.312Z,32.47
2018-04-13T09:43:13.618Z,31.07
2018-04-13T09:45:42.388Z,28.00
2018-04-13T09:48:11.058Z,28.83
2018-04-13T09:50:39.679Z,30.20
2018-04-13T09:53:08.351Z,28.87
2018-04-13T09:55:37.359Z,28.87
2018-04-13T09:58:06.014Z,28.30
2018-04-13T10:00:34.708Z,28.20
2018-04-13T10:03:03.778Z,28.63
2018-04-13T10:05:32.284Z,27.70
2018-04-13T10:08:00.983Z,27.20
2018-04-13T10:10:29.504Z,27.03
2018-04-13T10:12:58.253Z,27.37
2018-04-13T10:15:27.106Z,27.03
2018-04-13T10:17:55.691Z,27.33
2018-04-13T10:20:24.232Z,27.37
2018-04-13T10:22:52.919Z,29.17
2018-04-13T10:25:21.438Z,29.17
2018-04-13T10:27:50.437Z,28.80
2018-04-13T10:30:19.222Z,26.67
2018-04-13T10:32:48.024Z,29.47
2018-04-13T10:35:16.480Z,30.67
2018-04-13T10:37:45.116Z,29.00
2018-04-13T10:40:14.724Z,30.77
2018-04-13T10:42:43.606Z,31.43
2018-04-13T10:45:13.390Z,29.97
2018-04-13T10:47:42.916Z,31.73
2018-04-13T10:50:11.616Z,32.60
2018-04-13T10:52:40.179Z,33.93
2018-04-13T10:55:08.881Z,35.60
2018-04-13T10:57:38.410Z,34.83
2018-04-13T11:00:07.320Z,35.43
2018-04-13T11:02:42.530Z,37.73
2018-04-13T11:05:11.229Z,41.70
2018-04-13T11:07:39.839Z,42.10
2018-04-13T11:10:07.920Z,42.80
2018-04-13T11:12:36.709Z,42.37
2018-04-13T11:15:05.703Z,44.57
2018-04-13T11:17:34.204Z,40.97
2018-04-13T11:20:02.797Z,43.37
2018-04-13T11:22:31.425Z,39.50
2018-04-13T11:24:59.939Z,38.20
2018-04-13T11:27:28.623Z,34.57
2018-04-13T11:29:57.306Z,35.60
2018-04-13T11:32:25.835Z,32.30
2018-04-13T11:34:54.525Z,31.53
2018-04-13T11:37:24.003Z,32.23
2018-04-13T11:39:52.652Z,26.17
2018-04-13T11:42:21.707Z,25.33
2018-04-13T11:44:50.340Z,27.90
2018-04-13T11:47:19.107Z,28.17
2018-04-13T11:49:47.883Z,29.77
2018-04-13T11:52:16.835Z,27.27
2018-04-13T11:54:45.329Z,28.07
2018-04-13T11:57:14.183Z,27.57
2018-04-13T11:59:42.909Z,27.50
2018-04-13T12:02:11.470Z,23.00
2018-04-13T12:04:40.258Z,22.77
2018-04-13T12:07:09.163Z,20.17
2018-04-13T12:09:37.819Z,19.20
2018-04-13T12:12:07.491Z,18.70
2018-04-13T12:14:36.004Z,16.13
2018-04-13T12:17:04.725Z,15.80
2018-04-13T12:19:33.480Z,14.23
2018-04-13T12:22:02.526Z,14.40
2018-04-13T12:24:31.143Z,14.63
2018-04-13T12:26:59.954Z,13.83
2018-04-13T12:29:29.294Z,15.00
2018-04-13T12:31:58.223Z,14.73
2018-04-13T12:34:26.929Z,14.30
2018-04-13T12:36:55.477Z,13.97
2018-04-13T12:39:24.057Z,12.50
2018-04-13T12:41:53.879Z,12.73
2018-04-13T12:44:22.608Z,12.40
2018-04-13T12:46:51.476Z,12.13
2018-04-13T12:49:20.188Z,10.47
2018-04-13T12:51:49.509Z,10.33
2018-04-13T12:54:18.274Z,11.60
2018-04-13T12:56:46.960Z,9.57
2018-04-13T12:59:15.580Z,11.07
2018-04-13T13:01:45.557Z,11.27
2018-04-13T13:04:14.227Z,11.77
2018-04-13T13:06:43.072Z,11.37
2018-04-13T13:09:12.688Z,9.93
2018-04-13T13:11:43.617Z,11.43
2018-04-13T13:14:12.866Z,10.30
2018-04-13T13:16:41.886Z,11.13
2018-04-13T13:19:11.211Z,9.50
2018-04-13T13:21:40.273Z,10.90
2018-04-13T13:24:09.737Z,9.97
2018-04-13T13:26:38.278Z,10.50
2018-04-13T13:29:08.372Z,9.90
2018-04-13T13:31:38.512Z,9.57
2018-04-13T13:34:07.350Z,10.33
2018-04-13T13:36:37.225Z,10.20
2018-04-13T13:39:07.340Z,9.17
2018-04-13T13:41:41.463Z,8.77
2018-04-13T13:44:10.930Z,9.13
2018-04-13T13:46:40.633Z,10.30
2018-04-13T13:49:10.411Z,9.70
2018-04-13T13:51:39.663Z,8.93
2018-04-13T13:54:08.303Z,8.07
2018-04-13T13:56:37.180Z,7.83
2018-04-13T13:59:07.101Z,7.80
2018-04-13T14:01:35.767Z,7.70
2018-04-13T14:04:04.754Z,7.93
2018-04-13T14:06:33.753Z,6.80
2018-04-13T14:09:02.436Z,6.90
2018-04-13T14:11:31.600Z,6.87
2018-04-13T14:14:00.147Z,6.53
2018-04-13T14:16:28.743Z,6.50
2018-04-13T14:18:57.711Z,6.37
2018-04-13T14:21:26.321Z,5.87
2018-04-13T14:23:54.843Z,5.53
2018-04-13T14:26:23.718Z,5.60
2018-04-13T14:28:52.273Z,5.83
2018-04-13T14:31:20.977Z,5.93
2018-04-13T14:33:50.464Z,6.10
2018-04-13T14:36:19.188Z,5.40
2018-04-13T14:38:49.063Z,6.80
2018-04-13T14:41:17.649Z,6.67
2018-04-13T14:43:46.407Z,5.67
2018-04-13T14:46:14.964Z,5.67
2018-04-13T14:48:43.667Z,4.90
2018-04-13T14:51:12.594Z,5.67
2018-04-13T14:53:41.213Z,6.50
2018-04-13T14:56:09.999Z,5.70
2018-04-13T14:58:38.814Z,5.93
2018-04-13T15:01:07.492Z,5.97
2018-04-13T15:03:36.974Z,5.80
2018-04-13T15:06:05.718Z,5.60
2018-04-13T15:08:34.404Z,4.50
2018-04-13T15:11:03.598Z,5.07
2018-04-13T15:13:32.348Z,5.10
2018-04-13T15:16:01.024Z,5.40
2018-04-13T15:18:29.714Z,4.80
2018-04-13T15:20:59.326Z,4.93
2018-04-13T15:23:27.915Z,3.97
2018-04-13T15:25:56.578Z,4.03
2018-04-13T15:28:24.993Z,4.40
2018-04-13T15:30:53.628Z,4.57
2018-04-13T15:33:22.235Z,4.67
2018-04-13T15:35:50.719Z,4.70
2018-04-13T15:38:19.215Z,4.80
2018-04-13T15:40:47.918Z,4.80
2018-04-13T15:43:16.976Z,4.50
2018-04-13T15:45:45.786Z,4.47
2018-04-13T15:48:14.304Z,4.00
2018-04-13T15:50:43.890Z,4.30
2018-04-13T15:53:12.394Z,5.43
2018-04-13T15:55:42.265Z,4.60
2018-04-13T15:58:12.160Z,3.63
2018-04-13T16:00:42.007Z,4.67
2018-04-13T16:03:12.722Z,5.80
2018-04-13T16:05:43.233Z,5.47
2018-04-13T16:08:11.792Z,5.90
2018-04-13T16:10:41.348Z,4.50
2018-04-13T16:13:10.280Z,4.60
2018-04-13T16:15:43.238Z,8.20
2018-04-13T16:18:11.852Z,5.90
2018-04-13T16:20:40.776Z,6.80
2018-04-13T16:23:09.486Z,7.77
2018-04-13T16:25:44.837Z,7.00
2018-04-13T16:28:13.455Z,8.80
2018-04-13T16:30:42.147Z,6.57
2018-04-13T16:33:10.732Z,5.93
2018-04-13T16:35:39.366Z,8.30
2018-04-13T16:38:07.960Z,8.17
2018-04-13T16:40:36.631Z,7.40
2018-04-13T16:43:05.431Z,7.30
2018-04-13T16:45:34.027Z,8.87
2018-04-13T16:48:02.688Z,9.73
2018-04-13T16:50:31.362Z,14.90
2018-04-13T16:53:00.112Z,105.77
2018-04-13T16:55:28.572Z,54.17
2018-04-13T16:57:57.291Z,27.47
2018-04-13T17:00:25.779Z,45.30
2018-04-13T17:02:54.634Z,22.43
2018-04-13T17:05:23.367Z,24.47
2018-04-13T17:07:58.747Z,17.77
2018-04-13T17:10:27.439Z,15.10
2018-04-13T17:12:56.399Z,13.60
2018-04-13T17:15:25.049Z,12.37
2018-04-13T17:17:53.683Z,11.30
2018-04-13T17:20:22.324Z,10.57
2018-04-13T17:22:50.776Z,9.83
2018-04-13T17:25:19.330Z,11.47
2018-04-13T17:27:47.914Z,11.93
2018-04-13T17:30:16.756Z,13.00
2018-04-13T17:32:46.122Z,13.73
2018-04-13T17:35:14.780Z,14.70
2018-04-13T17:37:43.384Z,15.73
2018-04-13T17:40:12.307Z,15.33
2018-04-13T17:42:40.818Z,17.70
2018-04-13T17:45:09.566Z,17.47
2018-04-13T17:47:38.480Z,18.73
2018-04-13T17:50:07.059Z,18.50
2018-04-13T17:52:36.747Z,17.43
2018-04-13T17:55:05.447Z,18.13
2018-04-13T17:57:34.036Z,18.17
2018-04-13T18:00:02.709Z,19.67
2018-04-13T18:02:31.863Z,21.50
2018-04-13T18:05:00.883Z,24.20
2018-04-13T18:07:29.499Z,24.07
2018-04-13T18:09:58.313Z,24.20
2018-04-13T18:12:26.862Z,21.37
2018-04-13T18:14:55.663Z,19.20
2018-04-13T18:17:24.659Z,18.10
2018-04-13T18:19:54.655Z,18.60
2018-04-13T18:22:23.376Z,13.87
2018-04-13T18:24:52.039Z,14.90
2018-04-13T18:27:20.815Z,16.23
2018-04-13T18:29:49.739Z,15.00
2018-04-13T18:32:18.327Z,14.87
2018-04-13T18:34:46.742Z,15.10
2018-04-13T18:37:15.479Z,16.23
2018-04-13T18:39:44.212Z,16.90
2018-04-13T18:42:13.132Z,18.50
2018-04-13T18:44:41.659Z,15.60
2018-04-13T18:47:10.326Z,16.10
2018-04-13T18:49:39.832Z,17.63
2018-04-13T18:52:08.538Z,18.07
2018-04-13T18:54:37.195Z,19.30
2018-04-13T18:57:06.015Z,19.97
2018-04-13T18:59:34.731Z,16.67
2018-04-13T19:02:03.811Z,18.93
2018-04-13T19:04:32.835Z,16.67
2018-04-13T19:07:01.638Z,18.97
2018-04-13T19:09:30.131Z,18.67
2018-04-13T19:11:59.009Z,16.10
2018-04-13T19:14:27.611Z,17.53
2018-04-13T19:16:56.471Z,17.33
2018-04-13T19:19:25.199Z,18.33
2018-04-13T19:21:53.727Z,17.60
2018-04-13T19:24:22.406Z,15.90
2018-04-13T19:26:51.012Z,20.70
2018-04-13T19:29:19.503Z,20.70
2018-04-13T19:31:48.040Z,14.47
2018-04-13T19:34:16.788Z,15.47
2018-04-13T19:36:46.253Z,16.50
2018-04-13T19:39:14.879Z,16.73
2018-04-13T19:41:44.068Z,19.93
2018-04-13T19:44:12.867Z,16.97
2018-04-13T19:46:41.583Z,17.60
2018-04-13T19:49:10.488Z,17.63
2018-04-13T19:51:39.212Z,17.83
2018-04-13T19:54:08.027Z,17.80
2018-04-13T19:56:36.669Z,18.37
2018-04-13T19:59:05.309Z,17.93
2018-04-13T20:01:33.960Z,18.63
2018-04-13T20:04:03.100Z,19.83
2018-04-13T20:06:31.760Z,20.13
2018-04-13T20:09:00.350Z,20.10
2018-04-13T20:11:29.139Z,21.20
2018-04-13T20:13:58.355Z,22.30
2018-04-13T20:16:27.198Z,22.93
2018-04-13T20:18:55.923Z,24.67
2018-04-13T20:21:24.675Z,23.90
2018-04-13T20:23:53.535Z,24.73
2018-04-13T20:26:22.247Z,23.67
2018-04-13T20:28:50.952Z,23.33
2018-04-13T20:31:19.449Z,25.10
2018-04-13T20:33:48.262Z,20.70
2018-04-13T20:36:16.908Z,20.60
2018-04-13T20:38:45.547Z,21.13
2018-04-13T20:41:14.288Z,21.90
2018-04-13T20:43:43.374Z,24.53
2018-04-13T20:46:11.982Z,22.30
2018-04-13T20:48:40.539Z,24.23
2018-04-13T20:51:09.056Z,24.20
2018-04-13T20:53:37.721Z,23.23
2018-04-13T20:56:06.282Z,22.70
2018-04-13T20:58:35.085Z,23.97
2018-04-13T21:01:04.315Z,25.20
2018-04-13T21:03:32.977Z,23.27
2018-04-13T21:06:01.525Z,24.07
2018-04-13T21:08:30.358Z,22.77
2018-04-13T21:10:59.091Z,22.80
2018-04-13T21:13:28.030Z,21.40
2018-04-13T21:15:56.780Z,20.30
2018-04-13T21:18:25.600Z,20.27
2018-04-13T21:20:54.274Z,21.00
2018-04-13T21:23:22.811Z,20.90
2018-04-13T21:25:51.342Z,20.13
2018-04-13T21:28:20.034Z,18.73
2018-04-13T21:30:48.897Z,18.73
2018-04-13T21:33:17.456Z,18.60
2018-04-13T21:35:46.082Z,18.77
2018-04-13T21:38:15.671Z,17.13
2018-04-13T21:40:44.206Z,16.00
2018-04-13T21:43:14.660Z,14.67
2018-04-13T21:45:44.496Z,11.73
2018-04-13T21:48:13.766Z,10.30
2018-04-13T21:50:42.564Z,8.20
2018-04-13T21:53:11.268Z,7.20
2018-04-13T21:55:39.907Z,7.07
2018-04-13T21:58:08.789Z,5.97
2018-04-13T22:00:39.309Z,5.30
2018-04-13T22:03:08.873Z,5.80
2018-04-13T22:05:37.521Z,4.90
2018-04-13T22:08:06.071Z,5.60
2018-04-13T22:10:34.688Z,4.97
2018-04-13T22:13:34.492Z,5.43
2018-04-13T22:16:03.157Z,5.70
2018-04-13T22:18:31.632Z,5.00
2018-04-13T22:21:00.166Z,5.53
2018-04-13T22:23:28.790Z,4.77
2018-04-13T22:25:57.359Z,4.60
2018-04-13T22:28:26.086Z,4.80
2018-04-13T22:30:54.759Z,4.97
2018-04-13T22:33:23.324Z,5.30
2018-04-13T22:35:52.007Z,6.13
2018-04-13T22:38:20.414Z,6.30
2018-04-13T22:40:49.882Z,6.07
2018-04-13T22:43:18.510Z,6.37
2018-04-13T22:45:48.066Z,5.57
2018-04-13T22:48:16.952Z,5.30
2018-04-13T22:50:45.446Z,5.23
2018-04-13T22:53:14.392Z,5.00
2018-04-13T22:55:42.968Z,6.33
2018-04-13T22:58:11.498Z,6.37
2018-04-13T23:00:40.071Z,5.73
2018-04-13T23:03:08.856Z,5.00
2018-04-13T23:05:37.368Z,6.80
2018-04-13T23:08:06.008Z,5.70
2018-04-13T23:10:34.456Z,6.37
2018-04-13T23:13:03.003Z,6.43
2018-04-13T23:15:31.839Z,7.00
2018-04-13T23:18:01.315Z,6.00
2018-04-13T23:20:29.905Z,6.80
2018-04-13T23:22:58.666Z,6.23
2018-04-13T23:25:27.209Z,6.40
2018-04-13T23:27:55.828Z,5.93
2018-04-13T23:30:24.440Z,7.17
2018-04-13T23:32:53.352Z,6.83
2018-04-13T23:35:21.883Z,5.63
2018-04-13T23:37:50.672Z,6.70
2018-04-13T23:40:19.211Z,6.17
2018-04-13T23:42:47.872Z,6.87
2018-04-13T23:45:16.607Z,6.73
2018-04-13T23:47:45.157Z,7.10
2018-04-13T23:50:13.623Z,6.70
2018-04-13T23:52:42.358Z,6.90
2018-04-13T23:55:10.814Z,6.60
2018-04-13T23:57:39.330Z,6.40
